Main page
METAR-TAF:

METAR-TAF

Airports :

Chaudhary Charan Singh International Airport

Lucknow, India

latitude: 26-45N, longitude: 080-53E, elevation: 122 m

Current weather observation

The report was made 21 minutes ago, at 17:30 UTC
Calm wind
Temperature 20°C
Humidity 78%
Pressure 1013 hPa
Visibility: 2500 m
haze

METAR: VILK 151730Z 00000KT 2500 HZ NSC 20/16 Q1013 NOSIG

Time: 23:21 (17:51 UTC)

Forecast

The report was made 51 minutes ago, at 17:00 UTC
Forecast valid from 15 at 18 UTC to 16 at 24 UTC
Wind kt from the North
Visibility: 1500 m
mist
Becoming
from 16 at 00 UTC to 16 at 02 UTC
Visibility: 0800 m
mist, Shallow fog
Becoming
from 16 at 04 UTC to 16 at 06 UTC
Wind 4 kt from the West/Northwest
Visibility: 3000 m
haze
Becoming
from 16 at 16 UTC to 16 at 18 UTC
Wind kt from the North
Visibility: 1500 m
mist

TAF: VILK 151700Z 1518/1624 00000KT 1500 BR NSC BECMG 1600/1602 0800 BR MIFG BECMG 1604/1606 29004KT 3000 HZ BECMG 1616/1618 00000KT 1500 BR

Weather observations and forecasts of more than 4000 airports (METAR and TAF reports).

The available stations are represented by yellow and red dots on the map.

Hover mouse over dot to see the name of the station.

Then click to see weather observations and forecasts.

To change the map : click on the green buttons with a black cross to zoom in, on the green button with a dash to zoom out, or on the green arrows for adjacent maps.


METAR-TAF: